Time;durP1;ratioP1;P1;durP2;ratioP2;P2;SDS_P1;SDS_P2;PMS_P1;PMS_P2;Temp;Humidity;BMP_temperature;BMP_pressure;BME280_temperature;BME280_humidity;BME280_pressure;Samples;Min_cycle;Max_cycle;Signal;HPM_P1;HPM_P2
2021/12/29 00:02:10;;;;;;;;;;;;;;;-1.94;94.37;96929.55;1743637;81;24724;-85
2021/12/29 00:04:36;;;;;;;;;;;;;;;-2.12;94.26;96942.70;1742494;81;22063;-85
2021/12/29 00:07:02;;;;;;;;;;;;;;;-2.18;94.18;96944.70;1763453;81;25958;-85
2021/12/29 00:09:32;;;;;;;;;;;;;;;-2.23;94.14;96936.37;1747355;81;24331;-84
2021/12/29 00:11:56;;;;;;;;;;;;;;;-2.24;94.10;96939.42;1746146;81;20177;-86
2021/12/29 00:14:23;;;;;;;;;;;;;;;-2.20;94.07;96943.95;1755691;81;24978;-86
2021/12/29 00:16:49;;;;;;;;;;;;;;;-2.16;94.13;96937.34;1743273;81;21959;-86
2021/12/29 00:19:15;;;;;;;;;;;;;;;-2.07;94.19;96942.98;1754668;81;26833;-86
2021/12/29 00:21:42;;;;;;;;;;;;;;;-2.06;94.21;96942.06;1754182;81;24515;-86
2021/12/29 00:24:08;;;;;;;;;;;;;;;-2.08;94.22;96933.62;1754165;81;20282;-86
2021/12/29 00:26:34;;;;;;;;;;;;;;;-2.08;94.24;96929.78;1755410;81;24786;-86
2021/12/29 00:29:01;;;;;;;;;;;;;;;-2.11;94.24;96925.61;1752277;81;21955;-86
2021/12/29 00:31:28;;;;;;;;;;;;;;;-2.15;94.22;96924.92;1753032;80;26041;-86
2021/12/29 00:33:54;;;;;;;;;;;;;;;-2.17;94.23;96929.27;1749689;81;24586;-86
2021/12/29 00:36:21;;;;;;;;;;;;;;;-2.18;94.23;96923.75;1750002;81;20243;-86
2021/12/29 00:38:47;;;;;;;;;;;;;;;-2.06;94.29;96926.68;1753865;81;25609;-86
2021/12/29 00:41:14;;;;;;;;;;;;;;;-2.03;94.34;96917.59;1761274;81;22064;-85
2021/12/29 00:43:42;;;;;;;;;;;;;;;-1.96;94.44;96920.24;1759719;81;26031;-85
2021/12/29 00:46:10;;;;;;;;;;;;;;;-1.83;94.58;96917.52;1703030;82;24154;-86
2021/12/29 00:48:39;;;;;;;;;;;;;;;-1.69;94.74;96916.44;1743584;81;20270;-85
2021/12/29 00:51:04;;;;;;;;;;;;;;;-1.59;94.90;96916.88;1738094;82;24747;-85
2021/12/29 00:53:31;;;;;;;;;;;;;;;-1.64;94.93;96912.41;1742880;82;21873;-85
2021/12/29 00:55:57;;;;;;;;;;;;;;;-1.61;94.99;96915.66;1736569;82;25973;-85
2021/12/29 00:58:23;;;;;;;;;;;;;;;-1.57;95.07;96914.60;1737285;82;24362;-85
2021/12/29 01:00:49;;;;;;;;;;;;;;;-1.50;95.14;96912.14;1733942;82;20310;-85
2021/12/29 01:03:15;;;;;;;;;;;;;;;-1.50;95.20;96913.42;1729138;82;24878;-84
2021/12/29 01:05:41;;;;;;;;;;;;;;;-1.44;95.25;96911.03;1728435;82;22173;-84
2021/12/29 01:08:08;;;;;;;;;;;;;;;-1.30;95.37;96908.64;1735804;82;26055;-84
2021/12/29 01:10:34;;;;;;;;;;;;;;;-1.12;95.47;96910.79;1728871;82;24666;-84
2021/12/29 01:13:02;;;;;;;;;;;;;;;-1.02;95.53;96908.16;1742810;81;20293;-84
2021/12/29 01:15:47;;;;;;;;;;;;;;;-1.02;95.54;96904.30;1744547;81;24976;-84
2021/12/29 01:18:05;;;;;;;;;;;;;;;-0.94;95.60;96904.33;1755048;80;22167;-84
2021/12/29 01:20:32;;;;;;;;;;;;;;;-0.82;95.63;96906.75;1750492;81;26009;-83
2021/12/29 01:22:59;;;;;;;;;;;;;;;-0.75;95.63;96913.23;1753007;81;24538;-84
2021/12/29 01:25:26;;;;;;;;;;;;;;;-0.79;95.60;96917.31;1753391;81;20230;-84
2021/12/29 01:27:52;;;;;;;;;;;;;;;-0.81;95.58;96914.81;1750878;81;25470;-84
2021/12/29 01:30:19;;;;;;;;;;;;;;;-0.86;95.54;96918.06;1747707;81;22132;-84
2021/12/29 01:32:45;;;;;;;;;;;;;;;-0.84;95.56;96921.39;1750946;80;26035;-84
2021/12/29 01:35:11;;;;;;;;;;;;;;;-0.79;95.57;96918.14;1754343;81;24486;-84
2021/12/29 01:37:37;;;;;;;;;;;;;;;-0.71;95.58;96914.73;1751573;81;20292;-84
2021/12/29 01:40:08;;;;;;;;;;;;;;;-0.67;95.56;96912.41;1753449;81;25031;-84
2021/12/29 01:42:34;;;;;;;;;;;;;;;-0.67;95.55;96907.27;1750533;81;22165;-84
2021/12/29 01:45:01;;;;;;;;;;;;;;;-0.69;95.50;96900.08;1749733;81;26130;-84
2021/12/29 01:47:28;;;;;;;;;;;;;;;-0.70;95.49;96902.27;1752774;81;24528;-85
2021/12/29 01:49:54;;;;;;;;;;;;;;;-0.74;95.47;96905.91;1753370;81;20168;-84
2021/12/29 01:52:25;;;;;;;;;;;;;;;-0.78;95.45;96897.98;1752254;80;24810;-84
2021/12/29 01:54:52;;;;;;;;;;;;;;;-0.79;95.45;96893.75;1754451;81;22690;-84
2021/12/29 01:57:18;;;;;;;;;;;;;;;-0.72;95.49;96897.68;1753817;81;26042;-84
2021/12/29 01:59:45;;;;;;;;;;;;;;;-0.85;95.42;96896.16;1750217;81;24489;-84
2021/12/29 02:02:14;;;;;;;;;;;;;;;-1.08;95.25;96895.61;1753537;81;20233;-84
2021/12/29 02:04:39;;;;;;;;;;;;;;;-1.19;95.18;96889.71;1752231;81;24817;-84
2021/12/29 02:07:05;;;;;;;;;;;;;;;-1.34;95.02;96891.28;1754865;80;21934;-84
2021/12/29 02:09:31;;;;;;;;;;;;;;;-1.39;94.93;96888.10;1749017;81;26032;-84
2021/12/29 02:11:59;;;;;;;;;;;;;;;-1.33;94.96;96896.80;1750446;80;24369;-84
2021/12/29 02:14:26;;;;;;;;;;;;;;;-1.21;95.00;96897.13;1754295;81;20308;-84
2021/12/29 02:16:52;;;;;;;;;;;;;;;-1.12;95.08;96905.20;1752512;81;24849;-85
2021/12/29 02:19:18;;;;;;;;;;;;;;;-1.00;95.16;96902.05;1748643;81;21950;-85
2021/12/29 02:21:54;;;;;;;;;;;;;;;-0.90;95.23;96901.98;1752388;81;26031;-84
2021/12/29 02:26:41;;;;;;;;;;;;;;;-0.80;95.37;96890.80;1753001;81;20316;-85
2021/12/29 02:29:09;;;;;;;;;;;;;;;-0.69;95.52;96891.09;1750873;81;24775;-85
2021/12/29 02:31:37;;;;;;;;;;;;;;;-0.60;95.64;96885.48;1751520;81;20296;-84
2021/12/29 02:34:04;;;;;;;;;;;;;;;-0.56;95.74;96881.05;1753888;81;26121;-85
2021/12/29 02:36:30;;;;;;;;;;;;;;;-0.53;95.83;96871.44;1753055;81;23914;-84
2021/12/29 02:38:57;;;;;;;;;;;;;;;-0.42;95.98;96883.28;1745949;81;20532;-85
2021/12/29 02:41:26;;;;;;;;;;;;;;;-0.36;96.12;96888.56;1740749;80;24894;-84
2021/12/29 02:43:59;;;;;;;;;;;;;;;-0.35;96.21;96888.11;1752307;80;21947;-84
2021/12/29 02:46:21;;;;;;;;;;;;;;;-0.37;96.29;96894.61;1751589;80;26182;-84
2021/12/29 02:49:09;;;;;;;;;;;;;;;-0.34;96.35;96892.34;1736929;81;24670;-84
2021/12/29 02:51:16;;;;;;;;;;;;;;;-0.26;96.46;96894.05;1749850;80;20358;-85
2021/12/29 02:53:48;;;;;;;;;;;;;;;-0.19;96.54;96897.53;1740842;81;24736;-84
2021/12/29 02:56:14;;;;;;;;;;;;;;;-0.36;96.51;96896.72;1740751;81;22206;-85
2021/12/29 02:58:40;;;;;;;;;;;;;;;-0.60;96.45;96903.47;1745281;81;26127;-84
2021/12/29 03:01:08;;;;;;;;;;;;;;;-0.85;96.35;96903.03;1743423;81;24404;-84
2021/12/29 03:03:37;;;;;;;;;;;;;;;-1.07;96.25;96903.25;1746935;81;20247;-84
2021/12/29 03:06:02;;;;;;;;;;;;;;;-1.24;96.09;96902.38;1742860;81;24819;-84
2021/12/29 03:08:29;;;;;;;;;;;;;;;-1.34;96.03;96906.67;1745020;81;22173;-84
2021/12/29 03:10:55;;;;;;;;;;;;;;;-1.32;96.01;96910.02;1750450;81;26111;-84
2021/12/29 03:13:22;;;;;;;;;;;;;;;-1.24;96.10;96909.62;1749089;80;24486;-84
2021/12/29 03:15:49;;;;;;;;;;;;;;;-1.09;96.22;96909.38;1743224;81;20244;-84
2021/12/29 03:18:15;;;;;;;;;;;;;;;-0.93;96.41;96912.86;1747384;81;24803;-85
2021/12/29 03:20:42;;;;;;;;;;;;;;;-0.82;96.59;96910.60;1711310;82;21994;-85
2021/12/29 03:23:08;;;;;;;;;;;;;;;-0.91;96.67;96914.88;1748927;81;25996;-84
2021/12/29 03:25:34;;;;;;;;;;;;;;;-0.88;96.80;96909.17;1720383;82;24529;-84
2021/12/29 03:28:00;;;;;;;;;;;;;;;-0.82;96.91;96905.92;1762314;80;20502;-84
2021/12/29 03:30:28;;;;;;;;;;;;;;;-0.87;96.96;96898.41;1750105;81;25534;-84
2021/12/29 03:33:03;;;;;;;;;;;;;;;-0.90;97.04;96894.73;1745201;81;21952;-84
2021/12/29 03:35:22;;;;;;;;;;;;;;;-0.98;97.05;96889.12;1747205;81;26635;-84
2021/12/29 03:37:48;;;;;;;;;;;;;;;-0.94;97.11;96904.33;1745538;81;24511;-84
2021/12/29 03:40:15;;;;;;;;;;;;;;;-0.80;97.22;96893.81;1729975;81;20267;-84
2021/12/29 03:42:42;;;;;;;;;;;;;;;-0.71;97.29;96895.95;1760463;80;25668;-84
2021/12/29 03:45:09;;;;;;;;;;;;;;;-0.57;97.44;96894.80;1758776;80;22184;-84
2021/12/29 03:47:35;;;;;;;;;;;;;;;-0.46;97.56;96889.49;1757574;81;25984;-84
2021/12/29 03:50:01;;;;;;;;;;;;;;;-0.39;97.67;96891.30;1757056;81;24371;-84
2021/12/29 03:52:27;;;;;;;;;;;;;;;-0.35;97.77;96888.95;1758573;80;20256;-84
2021/12/29 03:54:53;;;;;;;;;;;;;;;-0.21;97.96;96894.20;1755931;81;24781;-84
2021/12/29 03:57:19;;;;;;;;;;;;;;;-0.13;98.10;96898.50;1757388;80;22022;-84
2021/12/29 03:59:45;;;;;;;;;;;;;;;-0.07;98.22;96901.20;1747628;81;25881;-84
2021/12/29 04:02:11;;;;;;;;;;;;;;;0.04;98.40;96909.19;1757192;81;24407;-84
2021/12/29 04:04:39;;;;;;;;;;;;;;;0.10;98.53;96908.04;1756536;81;20463;-84
2021/12/29 04:07:05;;;;;;;;;;;;;;;0.14;98.62;96910.36;1755036;80;24838;-84
2021/12/29 04:09:31;;;;;;;;;;;;;;;0.16;98.74;96912.41;1754485;81;21911;-84
2021/12/29 04:11:57;;;;;;;;;;;;;;;0.22;98.88;96915.92;1756235;79;21083;-84
2021/12/29 04:14:26;;;;;;;;;;;;;;;0.29;99.04;96914.69;1756722;81;24536;-84
2021/12/29 04:16:53;;;;;;;;;;;;;;;0.34;99.22;96916.56;1730936;81;20312;-84
2021/12/29 04:20:54;;;;;;;;;;;;;;;0.40;99.37;96918.81;1753679;80;24777;-84
2021/12/29 04:21:48;;;;;;;;;;;;;;;0.49;99.53;96926.96;1748565;81;21557;-85
2021/12/29 04:24:14;;;;;;;;;;;;;;;0.52;99.68;96928.91;1753962;81;26624;-84
2021/12/29 04:26:41;;;;;;;;;;;;;;;0.59;99.87;96932.81;1749432;81;24267;-85
2021/12/29 04:29:09;;;;;;;;;;;;;;;0.64;100.00;96931.27;1751635;80;20526;-85
2021/12/29 04:31:35;;;;;;;;;;;;;;;0.69;100.00;96935.71;1750626;81;25022;-85
2021/12/29 04:34:07;;;;;;;;;;;;;;;0.73;100.00;96925.16;1755146;81;21936;-85
2021/12/29 04:36:33;;;;;;;;;;;;;;;0.78;100.00;96927.48;1759437;81;26073;-85
2021/12/29 04:39:01;;;;;;;;;;;;;;;0.85;100.00;96926.23;1752134;81;24495;-85
2021/12/29 04:41:27;;;;;;;;;;;;;;;0.94;100.00;96929.58;1739773;80;20230;-85
2021/12/29 04:43:53;;;;;;;;;;;;;;;0.98;100.00;96928.52;1715249;81;24908;-85
2021/12/29 04:46:27;;;;;;;;;;;;;;;1.02;100.00;96926.12;1740534;81;22050;-85
2021/12/29 04:48:51;;;;;;;;;;;;;;;1.05;100.00;96927.23;1744089;81;26796;-85
2021/12/29 04:51:22;;;;;;;;;;;;;;;1.06;100.00;96931.47;1741117;81;24523;-85
2021/12/29 04:53:52;;;;;;;;;;;;;;;1.09;100.00;96934.34;1748100;81;20177;-85
2021/12/29 04:56:18;;;;;;;;;;;;;;;1.17;100.00;96935.56;1717226;82;24886;-85
2021/12/29 04:58:44;;;;;;;;;;;;;;;1.22;100.00;96927.12;1716351;81;22087;-85
2021/12/29 05:01:10;;;;;;;;;;;;;;;1.27;100.00;96926.85;1749219;80;26136;-85
2021/12/29 05:03:38;;;;;;;;;;;;;;;1.29;100.00;96928.89;1753996;80;24515;-85
2021/12/29 05:08:35;;;;;;;;;;;;;;;1.39;100.00;96935.63;1748740;81;24736;-85
2021/12/29 05:11:02;;;;;;;;;;;;;;;1.38;100.00;96935.25;1727979;81;21800;-85
2021/12/29 05:13:29;;;;;;;;;;;;;;;1.40;100.00;96936.01;1740525;80;26111;-85
2021/12/29 05:15:55;;;;;;;;;;;;;;;1.40;100.00;96934.72;1743440;81;24410;-85
2021/12/29 05:18:26;;;;;;;;;;;;;;;1.35;100.00;96936.73;1747693;81;20484;-85
2021/12/29 05:20:52;;;;;;;;;;;;;;;1.34;100.00;96938.94;1749059;80;25003;-86
2021/12/29 05:23:18;;;;;;;;;;;;;;;1.33;100.00;96935.52;1747818;81;22633;-86
2021/12/29 05:25:45;;;;;;;;;;;;;;;1.36;100.00;96937.11;1747474;81;26179;-85
2021/12/29 05:28:11;;;;;;;;;;;;;;;1.35;100.00;96941.89;1739384;81;24500;-85
2021/12/29 05:30:39;;;;;;;;;;;;;;;1.38;100.00;96950.27;1751091;81;20276;-84
2021/12/29 05:33:06;;;;;;;;;;;;;;;1.39;100.00;96948.52;1742285;81;24690;-84
2021/12/29 05:35:32;;;;;;;;;;;;;;;1.40;100.00;96948.89;1751182;80;22211;-85
2021/12/29 05:38:04;;;;;;;;;;;;;;;1.41;100.00;96954.42;1749761;81;26258;-84
2021/12/29 05:40:30;;;;;;;;;;;;;;;1.47;100.00;96954.91;1750831;80;24495;-85
2021/12/29 05:42:57;;;;;;;;;;;;;;;1.52;100.00;96963.67;1757256;81;20251;-84
2021/12/29 05:45:23;;;;;;;;;;;;;;;1.54;100.00;96959.23;1755504;81;25514;-85
2021/12/29 05:47:49;;;;;;;;;;;;;;;1.53;100.00;96958.86;1750929;81;21993;-85
2021/12/29 05:50:17;;;;;;;;;;;;;;;1.54;100.00;96963.09;1759647;81;26644;-85
2021/12/29 05:52:44;;;;;;;;;;;;;;;1.58;100.00;96975.72;1748514;81;25303;-85
2021/12/29 05:55:11;;;;;;;;;;;;;;;1.57;100.00;96976.66;1756699;81;20186;-85
2021/12/29 05:57:38;;;;;;;;;;;;;;;1.53;100.00;96980.77;1752141;81;24759;-84
2021/12/29 06:00:05;;;;;;;;;;;;;;;1.52;100.00;96979.13;1752965;81;21943;-85
2021/12/29 06:02:31;;;;;;;;;;;;;;;1.50;100.00;96986.11;1722738;81;26651;-84
2021/12/29 06:04:57;;;;;;;;;;;;;;;1.51;100.00;96992.48;1753718;81;24386;-84
2021/12/29 06:07:23;;;;;;;;;;;;;;;1.63;100.00;96990.50;1758485;81;20547;-84
2021/12/29 06:09:49;;;;;;;;;;;;;;;1.74;100.00;96991.63;1745485;80;24704;-84
2021/12/29 06:12:16;;;;;;;;;;;;;;;1.79;100.00;96993.02;1760571;81;22181;-85
2021/12/29 06:14:44;;;;;;;;;;;;;;;1.76;100.00;96995.75;1757295;81;26037;-84
2021/12/29 06:17:10;;;;;;;;;;;;;;;1.80;100.00;97002.88;1755804;81;24711;-84
2021/12/29 06:19:36;;;;;;;;;;;;;;;1.84;100.00;97004.36;1758352;81;20564;-85
2021/12/29 06:22:03;;;;;;;;;;;;;;;1.82;100.00;97008.30;1762476;81;24745;-85
2021/12/29 06:24:29;;;;;;;;;;;;;;;1.76;100.00;97001.38;1753923;81;22113;-85
2021/12/29 06:26:55;;;;;;;;;;;;;;;1.82;100.00;97013.91;1752482;81;25938;-85
2021/12/29 06:29:22;;;;;;;;;;;;;;;1.87;100.00;97012.73;1757312;81;24386;-85
2021/12/29 06:31:48;;;;;;;;;;;;;;;1.89;100.00;97017.36;1749210;81;20237;-85
2021/12/29 06:34:14;;;;;;;;;;;;;;;1.88;100.00;97017.44;1760956;81;24831;-85
2021/12/29 06:36:40;;;;;;;;;;;;;;;1.88;100.00;97022.59;1756617;81;22151;-85
2021/12/29 06:39:07;;;;;;;;;;;;;;;1.83;100.00;97025.45;1754854;80;26710;-85
2021/12/29 06:41:33;;;;;;;;;;;;;;;1.82;100.00;97028.94;1758388;81;24517;-85
2021/12/29 06:43:59;;;;;;;;;;;;;;;1.80;100.00;97030.76;1759911;81;20258;-85
2021/12/29 06:46:25;;;;;;;;;;;;;;;1.78;100.00;97033.07;1725873;81;24769;-84
2021/12/29 06:48:51;;;;;;;;;;;;;;;1.70;100.00;97034.78;1755836;81;21908;-85
2021/12/29 06:51:17;;;;;;;;;;;;;;;1.65;100.00;97035.51;1756777;81;26023;-85
2021/12/29 06:53:43;;;;;;;;;;;;;;;1.70;100.00;97041.23;1758694;81;24530;-84
2021/12/29 06:56:09;;;;;;;;;;;;;;;1.72;100.00;97039.86;1759928;81;20217;-84
2021/12/29 06:58:38;;;;;;;;;;;;;;;1.75;100.00;97044.37;1759445;81;25446;-84
2021/12/29 07:01:05;;;;;;;;;;;;;;;1.76;100.00;97050.37;1758328;81;22070;-84
2021/12/29 07:03:31;;;;;;;;;;;;;;;1.69;100.00;97049.42;1715625;81;26038;-84
2021/12/29 07:05:57;;;;;;;;;;;;;;;1.68;100.00;97043.09;1684314;85;24489;-84
2021/12/29 07:08:24;;;;;;;;;;;;;;;1.55;100.00;97040.81;1720933;80;20485;-85
2021/12/29 07:10:50;;;;;;;;;;;;;;;1.47;100.00;97036.56;1754041;81;24811;-85
2021/12/29 07:13:16;;;;;;;;;;;;;;;1.42;100.00;97038.08;1754788;81;22022;-85
2021/12/29 07:15:42;;;;;;;;;;;;;;;1.37;100.00;97031.52;1757282;81;26028;-84
2021/12/29 07:18:08;;;;;;;;;;;;;;;1.30;100.00;97032.34;1760788;81;24471;-84
2021/12/29 07:20:35;;;;;;;;;;;;;;;1.32;100.00;97036.10;1758259;81;20274;-84
2021/12/29 07:23:04;;;;;;;;;;;;;;;1.35;100.00;97044.52;1757569;81;24943;-84
2021/12/29 07:25:31;;;;;;;;;;;;;;;1.46;100.00;97047.78;1757075;80;22734;-84
2021/12/29 07:27:57;;;;;;;;;;;;;;;1.57;100.00;97055.75;1760544;81;26101;-84
2021/12/29 07:30:23;;;;;;;;;;;;;;;1.65;100.00;97062.58;1753919;80;24454;-84
2021/12/29 07:32:50;;;;;;;;;;;;;;;1.74;100.00;97060.80;1757034;81;20235;-84
2021/12/29 07:35:18;;;;;;;;;;;;;;;1.84;100.00;97063.22;1755658;81;25460;-84
2021/12/29 07:37:44;;;;;;;;;;;;;;;1.93;100.00;97070.42;1756847;81;23586;-84
2021/12/29 07:40:10;;;;;;;;;;;;;;;1.96;100.00;97066.84;1761226;80;26053;-84
2021/12/29 07:42:38;;;;;;;;;;;;;;;1.92;100.00;97070.50;1753518;81;24544;-85
2021/12/29 07:45:07;;;;;;;;;;;;;;;1.89;100.00;97081.84;1754902;81;20288;-84
2021/12/29 07:47:39;;;;;;;;;;;;;;;1.88;100.00;97091.78;1754524;81;24882;-84
2021/12/29 07:50:07;;;;;;;;;;;;;;;1.91;100.00;97098.04;1752987;80;22097;-84
2021/12/29 07:52:32;;;;;;;;;;;;;;;2.00;100.00;97097.54;1750565;80;25991;-85
2021/12/29 07:54:58;;;;;;;;;;;;;;;2.06;100.00;97099.77;1757784;80;20883;-85
2021/12/29 07:57:24;;;;;;;;;;;;;;;2.05;100.00;97092.95;1756047;80;20269;-85
2021/12/29 07:59:50;;;;;;;;;;;;;;;2.01;100.00;97094.05;1747562;80;24746;-84
2021/12/29 08:02:17;;;;;;;;;;;;;;;2.05;100.00;97092.95;1751767;81;21980;-85
2021/12/29 08:04:44;;;;;;;;;;;;;;;2.16;100.00;97091.03;1759034;81;26145;-85
2021/12/29 08:07:10;;;;;;;;;;;;;;;2.27;100.00;97092.53;1755094;81;24646;-84
2021/12/29 08:09:36;;;;;;;;;;;;;;;2.36;100.00;97098.44;1736011;81;20450;-84
2021/12/29 08:12:02;;;;;;;;;;;;;;;2.43;100.00;97097.63;1753348;81;24716;-84
2021/12/29 08:14:28;;;;;;;;;;;;;;;2.46;100.00;97106.02;1747115;81;21972;-84
2021/12/29 08:16:54;;;;;;;;;;;;;;;2.49;100.00;97108.44;1753762;81;26031;-84
2021/12/29 08:19:20;;;;;;;;;;;;;;;2.52;100.00;97111.28;1746633;81;24374;-84
2021/12/29 08:21:47;;;;;;;;;;;;;;;2.58;100.00;97113.50;1757065;81;20337;-84
2021/12/29 08:24:16;;;;;;;;;;;;;;;2.63;100.00;97117.09;1747405;80;25555;-84
2021/12/29 08:26:44;;;;;;;;;;;;;;;2.64;100.00;97120.06;1753867;81;22794;-84
2021/12/29 08:29:10;;;;;;;;;;;;;;;2.59;100.00;97122.09;1753260;81;25990;-84
2021/12/29 08:31:36;;;;;;;;;;;;;;;2.57;100.00;97122.17;1755674;81;24476;-84
2021/12/29 08:34:02;;;;;;;;;;;;;;;2.60;100.00;97134.08;1748397;81;20215;-86
2021/12/29 08:36:28;;;;;;;;;;;;;;;2.67;100.00;97141.39;1754215;81;25468;-85
2021/12/29 08:38:54;;;;;;;;;;;;;;;2.75;100.00;97144.34;1755210;81;22148;-85
2021/12/29 08:41:20;;;;;;;;;;;;;;;2.80;100.00;97144.89;1725241;81;25908;-85
2021/12/29 08:43:47;;;;;;;;;;;;;;;2.86;100.00;97148.41;1756826;81;24509;-85
2021/12/29 08:46:15;;;;;;;;;;;;;;;2.90;100.00;97156.80;1753477;81;20391;-85
2021/12/29 08:48:42;;;;;;;;;;;;;;;2.90;100.00;97146.00;1731596;81;24658;-84
2021/12/29 08:51:09;;;;;;;;;;;;;;;2.94;100.00;97155.71;1738749;81;21954;-85
2021/12/29 08:53:35;;;;;;;;;;;;;;;2.97;100.00;97153.39;1750425;81;26008;-85
2021/12/29 08:56:01;;;;;;;;;;;;;;;2.97;100.00;97150.80;1737487;81;24475;-85
2021/12/29 08:58:28;;;;;;;;;;;;;;;3.00;100.00;97155.31;1752669;80;20467;-85
2021/12/29 09:00:55;;;;;;;;;;;;;;;3.11;100.00;97156.80;1756904;80;24795;-85
2021/12/29 09:03:23;;;;;;;;;;;;;;;3.13;100.00;97165.30;1753828;80;21934;-85
2021/12/29 09:05:50;;;;;;;;;;;;;;;3.09;100.00;97158.66;1767483;80;26035;-85
2021/12/29 09:08:16;;;;;;;;;;;;;;;3.12;100.00;97156.34;1764554;79;24418;-85
2021/12/29 09:10:44;;;;;;;;;;;;;;;3.13;100.00;97156.71;1769924;79;20242;-85
2021/12/29 09:13:11;;;;;;;;;;;;;;;3.15;100.00;97147.12;1754449;79;24788;-84
2021/12/29 09:15:37;;;;;;;;;;;;;;;3.20;100.00;97144.63;1738828;78;22129;-85
2021/12/29 09:18:03;;;;;;;;;;;;;;;3.29;100.00;97144.05;1780727;78;25940;-85
2021/12/29 09:20:32;;;;;;;;;;;;;;;3.34;100.00;97145.89;1758337;79;24668;-85
2021/12/29 09:23:02;;;;;;;;;;;;;;;3.29;100.00;97135.47;1766297;79;20283;-85
2021/12/29 09:25:29;;;;;;;;;;;;;;;3.36;100.00;97147.09;1767480;79;24201;-85
2021/12/29 09:27:55;;;;;;;;;;;;;;;3.35;100.00;97151.90;1763927;79;22043;-85
2021/12/29 09:30:23;;;;;;;;;;;;;;;3.40;100.00;97145.14;1772190;79;26193;-85
2021/12/29 09:32:49;;;;;;;;;;;;;;;3.36;100.00;97153.10;1770516;79;25075;-86
2021/12/29 09:35:16;;;;;;;;;;;;;;;3.36;100.00;97150.52;1770124;79;20528;-85
2021/12/29 09:37:42;;;;;;;;;;;;;;;3.36;100.00;97152.27;1769823;79;24838;-85
2021/12/29 09:40:10;;;;;;;;;;;;;;;3.44;100.00;97150.03;1774753;79;22054;-85
2021/12/29 09:42:36;;;;;;;;;;;;;;;3.49;100.00;97147.98;1760994;79;25938;-85
2021/12/29 09:45:03;;;;;;;;;;;;;;;3.54;100.00;97144.68;1758316;80;24447;-86
2021/12/29 09:47:30;;;;;;;;;;;;;;;3.52;100.00;97142.64;1760432;80;20494;-86
2021/12/29 09:49:56;;;;;;;;;;;;;;;3.54;100.00;97142.09;1753807;80;24828;-85
2021/12/29 09:52:22;;;;;;;;;;;;;;;3.53;100.00;97144.30;1761036;80;22045;-86
2021/12/29 09:54:48;;;;;;;;;;;;;;;3.50;100.00;97146.23;1753711;79;25886;-85
2021/12/29 09:57:14;;;;;;;;;;;;;;;3.47;100.00;97141.27;1759590;80;24409;-85
2021/12/29 09:59:40;;;;;;;;;;;;;;;3.45;100.00;97143.10;1761691;80;20197;-85
2021/12/29 10:02:06;;;;;;;;;;;;;;;3.43;100.00;97148.39;1755766;80;24798;-85
2021/12/29 10:04:36;;;;;;;;;;;;;;;3.49;100.00;97147.98;1758479;80;22195;-85
2021/12/29 10:07:18;;;;;;;;;;;;;;;3.54;100.00;97148.56;1761830;80;26095;-85
2021/12/29 10:09:44;;;;;;;;;;;;;;;3.65;100.00;97152.59;1746181;80;24502;-85
2021/12/29 10:12:17;;;;;;;;;;;;;;;3.73;100.00;97154.23;1761307;80;20218;-86
2021/12/29 10:14:43;;;;;;;;;;;;;;;3.74;100.00;97155.89;1764571;79;20496;-86
2021/12/29 10:17:10;;;;;;;;;;;;;;;3.78;100.00;97158.64;1760582;80;22120;-85
2021/12/29 10:19:37;;;;;;;;;;;;;;;3.78;100.00;97159.11;1759539;80;26025;-85
2021/12/29 10:22:03;;;;;;;;;;;;;;;3.71;100.00;97151.35;1753938;80;24462;-85
2021/12/29 10:24:29;;;;;;;;;;;;;;;3.69;100.00;97152.77;1759842;80;20218;-85
2021/12/29 10:26:57;;;;;;;;;;;;;;;3.72;100.00;97159.48;1761976;80;24745;-85
2021/12/29 10:29:23;;;;;;;;;;;;;;;3.75;100.00;97155.44;1758067;80;22755;-85
2021/12/29 10:32:02;;;;;;;;;;;;;;;3.78;100.00;97163.81;1763803;80;26331;-87
2021/12/29 10:34:29;;;;;;;;;;;;;;;3.82;100.00;97167.03;1763412;80;24524;-86
2021/12/29 10:36:57;;;;;;;;;;;;;;;3.84;100.00;97165.66;1767956;79;20733;-85
2021/12/29 10:39:27;;;;;;;;;;;;;;;3.86;100.00;97163.81;1756163;80;24711;-85
2021/12/29 10:41:56;;;;;;;;;;;;;;;3.86;100.00;97167.23;1769730;79;21999;-85
2021/12/29 10:44:27;;;;;;;;;;;;;;;3.89;100.00;97166.19;1779344;79;26022;-85
2021/12/29 10:46:56;;;;;;;;;;;;;;;3.89;100.00;97166.19;1785260;78;24423;-85
2021/12/29 10:49:24;;;;;;;;;;;;;;;3.90;100.00;97168.69;1784810;78;20237;-85
2021/12/29 10:51:50;;;;;;;;;;;;;;;4.01;100.00;97170.59;1789227;78;24726;-85
2021/12/29 10:54:19;;;;;;;;;;;;;;;4.07;100.00;97169.75;1777527;78;21948;-84
2021/12/29 10:56:46;;;;;;;;;;;;;;;4.18;100.00;97172.94;1767882;80;26038;-85
2021/12/29 10:59:20;;;;;;;;;;;;;;;4.30;100.00;97173.91;1783043;80;24284;-85
2021/12/29 11:01:47;;;;;;;;;;;;;;;4.37;100.00;97172.56;1764815;80;20220;-85
2021/12/29 11:04:14;;;;;;;;;;;;;;;4.38;100.00;97183.29;1775351;79;24728;-85
2021/12/29 11:06:44;;;;;;;;;;;;;;;4.41;100.00;97183.11;1779021;79;22068;-85
2021/12/29 11:09:11;;;;;;;;;;;;;;;4.46;100.00;97185.77;1785258;78;25990;-85
2021/12/29 11:11:39;;;;;;;;;;;;;;;4.53;100.00;97180.52;1789476;78;24456;-86
2021/12/29 11:14:07;;;;;;;;;;;;;;;4.60;100.00;97175.31;1797032;78;20346;-85
2021/12/29 11:16:33;;;;;;;;;;;;;;;4.63;100.00;97175.59;1758383;80;24841;-85
2021/12/29 11:18:59;;;;;;;;;;;;;;;4.60;100.00;97180.49;1750121;81;21974;-86
2021/12/29 11:21:27;;;;;;;;;;;;;;;4.59;100.00;97182.72;1757643;81;25987;-86
2021/12/29 11:23:54;;;;;;;;;;;;;;;4.66;100.00;97177.12;1763491;81;25184;-86
2021/12/29 11:26:30;;;;;;;;;;;;;;;4.71;100.00;97181.55;1757227;81;20249;-86
2021/12/29 11:29:04;;;;;;;;;;;;;;;4.72;100.00;97185.34;1755468;81;25735;-86
2021/12/29 11:31:35;;;;;;;;;;;;;;;4.75;100.00;97192.06;1762369;80;22048;-86
2021/12/29 11:34:24;;;;;;;;;;;;;;;4.80;100.00;97202.98;1762715;79;26088;-86
2021/12/29 11:36:51;;;;;;;;;;;;;;;4.76;100.00;97205.39;1751565;79;24441;-86
2021/12/29 11:39:20;;;;;;;;;;;;;;;4.75;100.00;97216.22;1756065;80;20295;-86
2021/12/29 11:41:46;;;;;;;;;;;;;;;4.76;100.00;97219.64;1754897;80;24856;-86
2021/12/29 11:44:12;;;;;;;;;;;;;;;4.72;100.00;97215.60;1756297;80;22285;-87
2021/12/29 11:46:39;;;;;;;;;;;;;;;4.70;100.00;97219.58;1764501;79;25856;-87
2021/12/29 11:49:06;;;;;;;;;;;;;;;4.64;100.00;97218.68;1761619;81;24395;-87
2021/12/29 11:51:34;;;;;;;;;;;;;;;4.60;100.00;97224.54;1756328;81;20242;-87
2021/12/29 11:54:05;;;;;;;;;;;;;;;4.58;100.00;97225.09;1756727;81;25639;-87
2021/12/29 11:56:33;;;;;;;;;;;;;;;4.54;100.00;97222.34;1758575;81;22076;-87
2021/12/29 11:59:01;;;;;;;;;;;;;;;4.49;100.00;97229.59;1752517;81;26576;-87
2021/12/29 12:01:29;;;;;;;;;;;;;;;4.45;100.00;97232.48;1754290;81;24434;-87
2021/12/29 12:03:56;;;;;;;;;;;;;;;4.44;100.00;97239.88;1747870;81;20224;-87
2021/12/29 12:06:30;;;;;;;;;;;;;;;4.41;100.00;97237.03;1751557;81;24797;-86
2021/12/29 12:09:07;;;;;;;;;;;;;;;4.39;100.00;97238.88;1755546;80;22771;-86
2021/12/29 12:11:35;;;;;;;;;;;;;;;4.35;100.00;97240.02;1760555;81;26660;-87
2021/12/29 12:14:02;;;;;;;;;;;;;;;4.37;100.00;97239.44;1756457;81;24487;-87
2021/12/29 12:16:28;;;;;;;;;;;;;;;4.38;100.00;97244.98;1754477;80;20343;-87
2021/12/29 12:19:03;;;;;;;;;;;;;;;4.39;100.00;97246.66;1748555;81;24785;-87
2021/12/29 12:21:31;;;;;;;;;;;;;;;4.40;100.00;97240.55;1761638;81;22036;-87
2021/12/29 12:24:17;;;;;;;;;;;;;;;4.39;100.00;97245.36;1749097;81;26047;-87
2021/12/29 12:26:50;;;;;;;;;;;;;;;4.39;100.00;97252.30;1728677;81;24339;-88
2021/12/29 12:29:16;;;;;;;;;;;;;;;4.39;100.00;97257.47;1755246;81;20160;-87
2021/12/29 12:31:44;;;;;;;;;;;;;;;4.38;100.00;97250.63;1761284;80;24909;-86
2021/12/29 12:34:12;;;;;;;;;;;;;;;4.33;100.00;97258.70;1716476;82;22082;-86
2021/12/29 12:36:39;;;;;;;;;;;;;;;4.33;100.00;97258.70;1710484;82;26072;-86
2021/12/29 12:39:13;;;;;;;;;;;;;;;4.33;100.00;97265.17;1744286;81;24578;-87
2021/12/29 12:41:41;;;;;;;;;;;;;;;4.35;100.00;97269.80;1727874;81;20226;-87
2021/12/29 12:44:07;;;;;;;;;;;;;;;4.31;100.00;97265.72;1740531;81;25653;-87
2021/12/29 12:46:35;;;;;;;;;;;;;;;4.29;100.00;97266.30;1744891;81;21815;-85
2021/12/29 12:49:13;;;;;;;;;;;;;;;4.30;100.00;97267.13;1741854;81;26015;-86
2021/12/29 12:51:40;;;;;;;;;;;;;;;4.28;100.00;97270.27;1743992;80;24460;-85
2021/12/29 12:54:20;;;;;;;;;;;;;;;4.24;100.00;97272.23;1740753;80;20284;-87